createdAt,value
2023-03-17T06:32:17.126Z,5.90
2023-03-17T06:34:46.834Z,6.50
2023-03-17T06:37:14.720Z,7.00
2023-03-17T06:39:42.303Z,7.80
2023-03-17T06:42:09.784Z,7.90
2023-03-17T06:44:38.004Z,8.40
2023-03-17T06:47:05.836Z,8.90
2023-03-17T06:49:33.112Z,9.90
2023-03-17T06:52:00.791Z,10.70
2023-03-17T06:54:29.126Z,11.60
2023-03-17T06:56:56.648Z,11.90
2023-03-17T06:59:24.668Z,11.60
2023-03-17T07:01:52.636Z,11.70
2023-03-17T07:06:58.242Z,11.00
2023-03-17T07:09:26.339Z,11.00
2023-03-17T07:11:55.853Z,10.80
2023-03-17T07:14:27.098Z,9.70
2023-03-17T07:16:55.650Z,9.90
2023-03-17T07:19:25.024Z,10.30
2023-03-17T07:21:57.227Z,10.60
2023-03-17T07:26:53.710Z,13.10
2023-03-17T07:29:22.754Z,11.00
2023-03-17T07:31:51.307Z,11.50
2023-03-17T07:34:18.806Z,11.80
2023-03-17T07:41:42.878Z,12.50
2023-03-17T07:44:11.606Z,13.20
2023-03-17T07:46:39.099Z,14.10
2023-03-17T07:49:07.810Z,14.20
2023-03-17T07:51:35.537Z,16.10
2023-03-17T07:54:06.411Z,18.00
2023-03-17T07:56:33.985Z,18.80
2023-03-17T07:59:01.983Z,20.60
2023-03-17T08:01:41.616Z,19.50
2023-03-17T08:04:10.989Z,18.10
2023-03-17T08:06:52.125Z,18.70
2023-03-17T08:09:22.400Z,18.70
2023-03-17T08:11:50.005Z,18.30
2023-03-17T08:14:17.491Z,19.20
2023-03-17T08:16:47.299Z,18.70
2023-03-17T08:19:14.763Z,18.50
2023-03-17T08:21:42.299Z,18.10
2023-03-17T08:24:11.236Z,18.00
2023-03-17T08:26:41.971Z,18.90
2023-03-17T08:29:10.667Z,19.80
2023-03-17T08:31:38.073Z,19.70
2023-03-17T08:34:09.373Z,20.30
2023-03-17T08:36:38.864Z,19.90
2023-03-17T08:39:06.369Z,21.20
2023-03-17T08:41:35.007Z,20.90
2023-03-17T08:44:02.405Z,19.20
2023-03-17T08:46:32.748Z,18.20
2023-03-17T08:49:02.187Z,17.60
2023-03-17T08:51:35.101Z,17.00
2023-03-17T08:54:03.990Z,16.50
2023-03-17T08:56:32.822Z,16.90
2023-03-17T08:59:05.216Z,16.70
2023-03-17T09:01:37.369Z,17.80
2023-03-17T09:04:09.231Z,17.90
2023-03-17T09:06:48.913Z,19.00
2023-03-17T09:09:24.988Z,19.90
2023-03-17T09:11:54.240Z,20.00
2023-03-17T09:14:27.347Z,19.90
2023-03-17T09:16:59.140Z,19.90
2023-03-17T09:19:30.803Z,19.80
2023-03-17T09:22:01.110Z,19.90
2023-03-17T09:24:32.617Z,19.80
2023-03-17T09:27:02.015Z,20.10
2023-03-17T09:29:32.314Z,20.50
2023-03-17T09:32:01.919Z,21.60
2023-03-17T09:34:30.013Z,21.40
2023-03-17T09:37:00.149Z,22.70
2023-03-17T09:39:28.008Z,22.90
2023-03-17T09:42:08.738Z,22.20
2023-03-17T09:44:49.193Z,21.30
2023-03-17T09:47:17.345Z,21.70
2023-03-17T09:49:55.178Z,21.70
2023-03-17T09:52:28.686Z,21.70
2023-03-17T09:54:58.298Z,22.00
2023-03-17T09:57:36.545Z,22.60
2023-03-17T10:00:15.093Z,22.50
2023-03-17T10:02:43.440Z,22.60
2023-03-17T10:05:13.858Z,22.10
2023-03-17T10:07:45.022Z,21.50
2023-03-17T10:10:18.783Z,20.50
2023-03-17T10:13:06.466Z,20.50
2023-03-17T10:15:44.564Z,20.00
2023-03-17T10:18:14.989Z,19.50
2023-03-17T10:20:59.119Z,19.10
2023-03-17T10:23:30.573Z,18.90
2023-03-17T10:26:02.869Z,19.30
2023-03-17T10:28:36.210Z,19.40
2023-03-17T10:31:30.828Z,19.50
2023-03-17T10:34:05.971Z,19.20
2023-03-17T10:36:42.893Z,19.10
2023-03-17T10:39:17.283Z,19.10
2023-03-17T10:42:01.125Z,19.30
2023-03-17T10:44:40.398Z,19.50
2023-03-17T10:47:25.373Z,19.50
2023-03-17T10:49:57.983Z,19.40
2023-03-17T10:52:32.737Z,19.60
2023-03-17T10:55:09.166Z,19.70
2023-03-17T10:57:39.525Z,19.70
2023-03-17T11:03:34.463Z,19.50
2023-03-17T11:06:20.592Z,19.70
2023-03-17T11:08:56.896Z,20.00
2023-03-17T11:11:27.711Z,20.00
2023-03-17T11:14:09.712Z,20.00
2023-03-17T11:16:42.035Z,19.70
2023-03-17T11:19:19.621Z,19.80
2023-03-17T11:21:56.925Z,20.00
2023-03-17T11:24:33.640Z,19.90
2023-03-17T11:27:42.552Z,19.90
2023-03-17T11:30:34.637Z,19.20
2023-03-17T11:33:28.125Z,19.20
2023-03-17T11:36:03.697Z,19.50
2023-03-17T11:38:36.286Z,19.10
2023-03-17T11:41:05.171Z,20.00
2023-03-17T11:44:11.440Z,19.60
2023-03-17T11:47:04.556Z,20.10
2023-03-17T11:49:39.282Z,20.10
2023-03-17T11:52:10.778Z,19.90
2023-03-17T11:55:17.039Z,19.60
2023-03-17T11:57:49.190Z,19.20
2023-03-17T12:00:46.554Z,19.20
2023-03-17T12:03:43.255Z,18.70
2023-03-17T12:06:21.019Z,18.90
2023-03-17T12:08:59.718Z,19.10
2023-03-17T12:11:30.666Z,19.10
2023-03-17T12:14:20.955Z,19.00
2023-03-17T12:16:54.449Z,19.10
2023-03-17T12:19:45.823Z,19.00
2023-03-17T12:22:17.659Z,18.50
2023-03-17T12:24:55.429Z,18.80
2023-03-17T12:27:28.776Z,18.50
2023-03-17T12:30:05.388Z,18.70
2023-03-17T12:32:47.072Z,18.70
2023-03-17T12:35:34.881Z,19.20
2023-03-17T12:38:23.245Z,19.10
2023-03-17T12:41:15.271Z,19.10
2023-03-17T12:44:04.088Z,19.40
2023-03-17T12:46:34.370Z,19.40
2023-03-17T12:49:25.389Z,19.50
2023-03-17T12:52:26.059Z,19.20
2023-03-17T12:54:54.136Z,19.40
2023-03-17T12:57:27.201Z,19.10
2023-03-17T13:00:05.563Z,18.90
2023-03-17T13:02:38.366Z,19.20
2023-03-17T13:05:10.023Z,19.50
2023-03-17T13:07:51.599Z,19.40
2023-03-17T13:10:40.939Z,19.30
2023-03-17T13:13:20.159Z,19.40
2023-03-17T13:15:49.621Z,19.40
2023-03-17T13:18:19.228Z,19.40
2023-03-17T13:23:18.442Z,19.70
2023-03-17T13:25:55.118Z,19.80
2023-03-17T13:28:40.743Z,19.70
2023-03-17T13:31:29.611Z,19.70
2023-03-17T13:34:03.458Z,19.40
2023-03-17T13:36:39.936Z,19.40
2023-03-17T13:39:25.014Z,19.30
2023-03-17T13:42:19.791Z,19.20
2023-03-17T13:45:16.241Z,19.30
2023-03-17T13:47:44.234Z,19.10
2023-03-17T13:50:32.879Z,19.20
2023-03-17T13:53:04.812Z,19.30
2023-03-17T13:55:37.010Z,19.10
2023-03-17T13:58:11.361Z,19.00
2023-03-17T14:00:42.410Z,19.20
2023-03-17T14:03:39.194Z,19.00
2023-03-17T14:06:08.744Z,18.80
2023-03-17T14:08:38.869Z,18.60
2023-03-17T14:11:20.082Z,18.70
2023-03-17T14:14:15.215Z,18.70
2023-03-17T14:17:12.336Z,18.70
2023-03-17T14:19:41.814Z,18.70
2023-03-17T14:22:24.334Z,18.60
2023-03-17T14:24:54.088Z,18.80
2023-03-17T14:27:24.323Z,18.90
2023-03-17T14:29:52.391Z,18.80
2023-03-17T14:32:23.230Z,19.00
2023-03-17T14:34:58.597Z,18.80
2023-03-17T14:37:28.407Z,18.70
2023-03-17T14:39:59.594Z,18.60
2023-03-17T14:42:30.881Z,18.60
2023-03-17T14:45:04.689Z,18.60
2023-03-17T14:47:39.478Z,18.50
2023-03-17T14:50:34.614Z,18.50
2023-03-17T14:53:02.158Z,18.10
2023-03-17T14:55:38.215Z,17.90
2023-03-17T14:58:17.858Z,17.80
2023-03-17T15:00:46.779Z,17.90
2023-03-17T15:03:21.260Z,18.10
2023-03-17T15:05:50.078Z,18.50
2023-03-17T15:08:41.535Z,18.20
2023-03-17T15:11:17.827Z,18.10
2023-03-17T15:13:45.633Z,18.00
2023-03-17T15:16:21.456Z,18.00
2023-03-17T15:18:55.097Z,18.00
2023-03-17T15:21:27.141Z,17.90
2023-03-17T15:23:54.742Z,17.90
2023-03-17T15:26:28.350Z,18.00
2023-03-17T15:28:57.118Z,17.80
2023-03-17T15:31:28.502Z,17.60
2023-03-17T15:33:57.474Z,17.60
2023-03-17T15:36:32.403Z,17.50
2023-03-17T15:39:01.093Z,17.40
2023-03-17T15:41:28.334Z,17.40
2023-03-17T15:43:55.591Z,17.20
2023-03-17T15:46:27.477Z,17.30
2023-03-17T15:48:55.124Z,17.10
2023-03-17T15:51:22.800Z,17.30
2023-03-17T15:53:49.942Z,17.70
2023-03-17T15:56:20.425Z,17.40
2023-03-17T15:58:49.279Z,17.10
2023-03-17T16:01:17.010Z,17.40
2023-03-17T16:03:47.067Z,17.20
2023-03-17T16:06:22.406Z,16.70
2023-03-17T16:08:50.620Z,16.80
2023-03-17T16:11:22.686Z,16.80
2023-03-17T16:13:49.977Z,17.40
2023-03-17T16:16:21.566Z,16.60
2023-03-17T16:18:51.049Z,16.70
2023-03-17T16:21:19.265Z,16.70
2023-03-17T16:23:48.155Z,17.10
2023-03-17T16:26:16.888Z,17.00
2023-03-17T16:28:46.272Z,16.70
2023-03-17T16:31:24.007Z,16.60
2023-03-17T16:33:52.741Z,16.90
2023-03-17T16:36:21.998Z,16.40
2023-03-17T16:38:49.942Z,16.20
2023-03-17T16:41:23.158Z,16.20
2023-03-17T16:44:01.708Z,16.10
2023-03-17T16:46:35.150Z,16.20
2023-03-17T16:49:04.216Z,15.80
2023-03-17T16:51:31.605Z,15.40
2023-03-17T16:53:59.896Z,15.40
2023-03-17T16:56:27.495Z,15.50
